Nearby METAR Reports

 

NZCH - Christchurch Int, New Zealand
Distance from station: W 10km
Updated: 07 Dec 2019 16:30
Clear
Clear
 Wind from NW
Wind: NW 43 km/h, Gust: 63 km/h
Temperature: 25°C
Dew Point: 1°C
Humidity: 21%
Barometer: 1002 hPa
Clouds: Clear
Visibility: 10 km
2019/12/07 03:30 NZCH 070330Z AUTO 31023G34KT 270V350 9999 NCD 25/01 Q1002 NOSIG